Главная страница
METAR-TAF:

METAR-TAF

Аэропорты :

Olean, Нью-Йорк, США

широта: 42-14-28N, долгота: 078-22-17W, высота над уровнем моря: 651 м

Текущие метеонаблюдения

Эта сводка был подготовлена 13 минут назад, в 14:15 UTC
Ветер 8 Узел от западный-юго-западный с порывами до 20 Узел, изменяющийся между юго-западный и западно-северо-западный
Температура -3°C
Влажность 100%
Давление 1014 hPa
Видимость: 8.0 км
Сплошная облачность на высоте 800 фута
неизвестно

METAR: KOLE 211415Z AUTO 25008G20KT 220V300 5SM UP OVC008 M03/M03 A2993 RMK AO2

Время: 09:28 (14:28 UTC)


TAF: отсутствует

Метеонаблюдения и прогнозы для более 4000 аэропортов (сводки METAR и TAF).

Имеющиеся станции представлены на карте желтыми и красными точками.

Чтобы увидеть название станции, наведите на нее мышь.

Затем щелкните, чтобы увидеть метеонаблюдения и метеопрогнозы.

Управление картой: чтобы увеличить масштаб, щелкните зеленые кнопки с черным крестиком; чтобы уменьшить масштаб, щелкните зеленую кнопку с тире; для просмотра соседних карт щелкайте зеленые стрелки.


METAR-TAF: